createdAt,value
2018-11-20T04:00:13.603Z,70.65
2018-11-20T04:03:30.463Z,66.70
2018-11-20T04:06:48.459Z,74.22
2018-11-20T04:10:10.131Z,64.12
2018-11-20T04:13:33.067Z,66.85
2018-11-20T04:16:58.434Z,75.87
2018-11-20T04:20:02.756Z,210.02
2018-11-20T04:23:13.001Z,178.60
2018-11-20T04:26:24.583Z,171.25
2018-11-20T04:29:27.079Z,156.12
2018-11-20T04:32:39.303Z,136.68
2018-11-20T04:35:52.480Z,124.00
2018-11-20T04:39:14.321Z,124.40
2018-11-20T04:42:32.077Z,122.65
2018-11-20T04:45:56.212Z,117.55
2018-11-20T04:49:21.007Z,107.40
2018-11-20T04:52:32.191Z,117.10
2018-11-20T04:55:46.153Z,97.20
2018-11-20T04:59:16.088Z,90.55
2018-11-20T05:02:39.727Z,94.55
2018-11-20T05:05:56.110Z,77.50
2018-11-20T05:09:10.076Z,71.97
2018-11-20T05:12:26.225Z,72.22
2018-11-20T05:15:52.087Z,69.80
2018-11-20T05:19:04.035Z,61.55
2018-11-20T05:22:26.622Z,74.42
2018-11-20T05:25:38.689Z,65.62
2018-11-20T05:29:00.599Z,65.92
2018-11-20T05:33:49.916Z,59.85
2018-11-20T05:37:06.090Z,66.72
2018-11-20T05:40:25.583Z,57.62
2018-11-20T05:43:36.407Z,54.18
2018-11-20T05:46:58.651Z,60.67
2018-11-20T05:50:11.890Z,54.23
2018-11-20T05:53:31.208Z,59.73
2018-11-20T05:56:42.695Z,52.30
2018-11-20T06:00:15.444Z,56.58
2018-11-20T06:03:46.328Z,48.10
2018-11-20T06:07:04.816Z,48.80
2018-11-20T06:10:27.250Z,54.67
2018-11-20T06:13:51.919Z,47.80
2018-11-20T06:17:07.375Z,48.80
2018-11-20T06:20:18.414Z,46.33
2018-11-20T06:23:25.731Z,44.80
2018-11-20T06:26:36.978Z,41.73
2018-11-20T06:29:49.345Z,40.60
2018-11-20T06:33:09.189Z,38.30
2018-11-20T06:36:26.591Z,41.50
2018-11-20T06:39:40.469Z,38.95
2018-11-20T06:42:54.033Z,39.10
2018-11-20T06:46:08.454Z,36.23
2018-11-20T06:49:21.813Z,35.80
2018-11-20T06:52:35.075Z,38.55
2018-11-20T06:55:56.359Z,35.80
2018-11-20T06:59:11.800Z,35.73
2018-11-20T07:02:23.358Z,40.95
2018-11-20T07:05:48.271Z,35.58
2018-11-20T07:08:57.597Z,37.35
2018-11-20T07:12:13.214Z,35.40
2018-11-20T07:15:30.045Z,36.15
2018-11-20T07:18:46.025Z,35.78
2018-11-20T07:22:09.603Z,35.28
2018-11-20T07:25:30.203Z,33.63
2018-11-20T07:28:44.399Z,35.88
2018-11-20T07:31:59.845Z,33.65
2018-11-20T07:35:23.209Z,36.55
2018-11-20T07:38:35.139Z,30.95
2018-11-20T07:41:55.963Z,35.08
2018-11-20T07:45:20.067Z,31.55
2018-11-20T07:48:50.798Z,33.63
2018-11-20T07:52:14.380Z,35.08
2018-11-20T07:55:25.359Z,38.45
2018-11-20T07:58:48.689Z,38.63
2018-11-20T08:02:07.265Z,37.93
2018-11-20T08:05:22.216Z,31.85
2018-11-20T08:08:40.559Z,39.53
2018-11-20T08:12:07.687Z,38.33
2018-11-20T08:15:18.277Z,39.60
2018-11-20T08:18:38.061Z,36.13
2018-11-20T08:22:07.821Z,38.30
2018-11-20T08:25:21.386Z,38.48
2018-11-20T08:28:40.468Z,35.78
2018-11-20T08:31:52.871Z,36.40
2018-11-20T08:35:01.534Z,31.57
2018-11-20T08:38:12.710Z,36.77
2018-11-20T08:41:42.802Z,36.73
2018-11-20T08:45:05.458Z,37.93
2018-11-20T08:48:12.231Z,37.55
2018-11-20T08:51:39.956Z,34.67
2018-11-20T08:54:51.386Z,39.83
2018-11-20T08:58:05.410Z,37.45
2018-11-20T09:01:26.927Z,36.70
2018-11-20T09:04:42.420Z,39.38
2018-11-20T09:07:53.774Z,39.35
2018-11-20T09:11:08.668Z,40.50
2018-11-20T09:14:18.389Z,39.27
2018-11-20T09:17:32.830Z,40.23
2018-11-20T09:20:42.646Z,46.80
2018-11-20T09:23:52.116Z,41.83
2018-11-20T09:27:07.338Z,47.50
2018-11-20T09:30:19.099Z,45.85
2018-11-20T09:33:31.729Z,45.35
2018-11-20T09:36:37.161Z,46.95
2018-11-20T09:39:39.351Z,45.58
2018-11-20T09:43:10.004Z,45.98
2018-11-20T09:46:23.093Z,43.52
2018-11-20T09:49:33.797Z,39.48
2018-11-20T09:53:04.453Z,44.45
2018-11-20T09:56:15.006Z,41.92
2018-11-20T09:59:47.029Z,48.17
2018-11-20T10:02:54.869Z,38.55
2018-11-20T10:06:07.967Z,41.70
2018-11-20T10:09:23.325Z,44.38
2018-11-20T10:12:54.217Z,38.95
2018-11-20T10:16:06.500Z,37.75
2018-11-20T10:19:34.258Z,47.03
2018-11-20T10:22:52.693Z,40.50
2018-11-20T10:26:13.821Z,39.38
2018-11-20T10:30:02.029Z,41.60
2018-11-20T10:33:21.553Z,39.67
2018-11-20T10:36:52.999Z,37.30
2018-11-20T10:40:13.824Z,37.45
2018-11-20T10:43:25.345Z,39.33
2018-11-20T10:46:38.107Z,44.48
2018-11-20T10:49:50.627Z,39.30
2018-11-20T10:53:06.937Z,42.33
2018-11-20T10:56:18.792Z,38.02
2018-11-20T10:59:31.334Z,36.15
2018-11-20T11:02:42.250Z,40.92
2018-11-20T11:05:53.274Z,36.68
2018-11-20T11:09:05.531Z,35.20
2018-11-20T11:12:16.394Z,38.17
2018-11-20T11:15:27.507Z,35.95
2018-11-20T11:18:37.527Z,35.20
2018-11-20T11:21:52.428Z,35.00
2018-11-20T11:24:59.954Z,35.00
2018-11-20T11:28:26.781Z,33.63
2018-11-20T11:31:55.457Z,36.25
2018-11-20T11:35:13.000Z,32.45
2018-11-20T11:38:24.838Z,33.78
2018-11-20T11:41:53.415Z,33.83
2018-11-20T11:45:04.877Z,32.73
2018-11-20T11:48:24.201Z,32.55
2018-11-20T11:51:43.386Z,35.95
2018-11-20T11:54:55.787Z,32.70
2018-11-20T11:58:08.996Z,32.75
2018-11-20T12:01:24.244Z,32.60
2018-11-20T12:04:35.314Z,32.67
2018-11-20T12:07:47.214Z,33.30
2018-11-20T12:10:57.631Z,32.42
2018-11-20T12:14:07.971Z,29.77
2018-11-20T12:17:19.735Z,36.03
2018-11-20T12:20:39.090Z,36.73
2018-11-20T12:24:10.435Z,31.33
2018-11-20T12:27:38.196Z,35.88
2018-11-20T12:30:58.701Z,42.70
2018-11-20T12:34:09.276Z,36.68
2018-11-20T12:37:19.289Z,30.45
2018-11-20T12:40:32.985Z,35.68
2018-11-20T12:43:51.511Z,30.88
2018-11-20T12:47:02.001Z,33.83
2018-11-20T12:50:13.502Z,34.80
2018-11-20T12:53:35.228Z,34.73
2018-11-20T12:56:47.292Z,34.00
2018-11-20T13:00:19.135Z,33.35
2018-11-20T13:03:30.911Z,31.17
2018-11-20T13:06:42.939Z,34.27
2018-11-20T13:10:02.255Z,29.52
2018-11-20T13:13:08.864Z,33.42
2018-11-20T13:16:19.519Z,32.53
2018-11-20T13:19:33.320Z,33.40
2018-11-20T13:22:45.069Z,38.53
2018-11-20T13:26:05.092Z,37.42
2018-11-20T13:29:25.728Z,37.05
2018-11-20T13:32:35.785Z,38.05
2018-11-20T13:36:02.022Z,41.15
2018-11-20T13:39:13.890Z,44.45
2018-11-20T13:42:19.774Z,41.08
2018-11-20T13:45:32.120Z,44.15
2018-11-20T13:48:48.306Z,41.83
2018-11-20T13:52:11.916Z,39.58
2018-11-20T13:55:31.926Z,39.55
2018-11-20T13:58:41.836Z,38.78
2018-11-20T14:01:52.365Z,35.17
2018-11-20T14:05:23.335Z,39.85
2018-11-20T14:08:32.264Z,41.25
2018-11-20T14:11:36.645Z,40.92
2018-11-20T14:14:54.288Z,44.53
2018-11-20T14:18:12.249Z,35.88
2018-11-20T14:21:22.489Z,38.88
2018-11-20T14:24:37.638Z,40.40
2018-11-20T14:27:48.647Z,38.05
2018-11-20T14:30:54.556Z,37.10
2018-11-20T14:34:03.863Z,42.73
2018-11-20T14:37:30.471Z,41.92
2018-11-20T14:40:40.403Z,45.10
2018-11-20T14:43:50.781Z,43.17
2018-11-20T14:47:11.655Z,40.17
2018-11-20T14:50:18.472Z,43.48
2018-11-20T14:53:18.808Z,39.23
2018-11-20T14:56:30.481Z,40.50
2018-11-20T14:59:48.325Z,36.03
2018-11-20T15:03:03.815Z,38.55
2018-11-20T15:06:22.541Z,40.23
2018-11-20T15:09:52.183Z,46.15
2018-11-20T15:13:00.126Z,37.45
2018-11-20T15:16:20.299Z,38.65
2018-11-20T15:19:30.876Z,46.08
2018-11-20T15:22:42.435Z,44.23
2018-11-20T15:25:47.054Z,46.70
2018-11-20T15:29:13.932Z,39.55
2018-11-20T15:32:36.188Z,44.35
2018-11-20T15:35:46.192Z,36.55
2018-11-20T15:39:14.031Z,46.18
2018-11-20T15:42:25.870Z,46.30
2018-11-20T15:45:50.727Z,40.50
2018-11-20T15:49:14.962Z,43.83
2018-11-20T15:52:35.798Z,47.40
2018-11-20T15:55:46.950Z,47.15
2018-11-20T15:58:58.228Z,41.73
2018-11-20T16:02:15.060Z,46.08
2018-11-20T16:05:24.472Z,47.80
2018-11-20T16:08:34.116Z,45.40
2018-11-20T16:11:48.278Z,41.10
2018-11-20T16:15:01.349Z,43.92
2018-11-20T16:18:18.121Z,39.45
2018-11-20T16:21:29.210Z,43.28
2018-11-20T16:24:41.808Z,41.88
2018-11-20T16:28:00.925Z,42.23
2018-11-20T16:31:13.725Z,46.30
2018-11-20T16:34:25.224Z,44.23
2018-11-20T16:37:50.145Z,44.65
2018-11-20T16:41:00.742Z,48.42
2018-11-20T16:44:11.837Z,45.78
2018-11-20T16:47:23.687Z,47.98
2018-11-20T16:50:37.900Z,47.58
2018-11-20T16:53:51.528Z,46.73
2018-11-20T16:57:13.756Z,44.60
2018-11-20T17:00:27.433Z,46.68
2018-11-20T17:03:47.203Z,46.28
2018-11-20T17:06:59.933Z,44.83
2018-11-20T17:10:22.024Z,50.98
2018-11-20T17:13:43.757Z,47.58
2018-11-20T17:16:50.348Z,46.73
2018-11-20T17:20:05.922Z,45.80
2018-11-20T17:23:16.402Z,43.15
2018-11-20T17:26:42.289Z,43.75
2018-11-20T17:29:58.208Z,48.78
2018-11-20T17:33:08.976Z,44.83
2018-11-20T17:36:21.012Z,47.15
2018-11-20T17:39:33.381Z,43.45
2018-11-20T17:42:49.140Z,45.33
2018-11-20T17:46:03.766Z,42.73
2018-11-20T17:49:19.963Z,47.20
2018-11-20T17:52:45.417Z,47.35
2018-11-20T17:55:56.888Z,53.42
2018-11-20T17:59:18.777Z,52.10
2018-11-20T18:02:33.925Z,51.80
2018-11-20T18:05:45.160Z,49.23
2018-11-20T18:08:56.536Z,44.88
2018-11-20T18:12:12.539Z,44.73
2018-11-20T18:15:25.455Z,44.83
2018-11-20T18:18:50.144Z,43.40
2018-11-20T18:22:11.296Z,45.10
2018-11-20T18:25:30.939Z,43.40
2018-11-20T18:29:01.743Z,46.42
2018-11-20T18:32:13.196Z,45.98
2018-11-20T18:35:27.917Z,44.77
2018-11-20T18:38:56.836Z,43.75
2018-11-20T18:42:04.530Z,45.17
2018-11-20T18:45:26.583Z,45.17
2018-11-20T18:48:45.401Z,44.20
2018-11-20T18:51:58.034Z,42.45
2018-11-20T18:55:06.148Z,47.25
2018-11-20T18:58:17.408Z,44.80
2018-11-20T19:01:36.176Z,43.63
2018-11-20T19:04:55.052Z,45.35
2018-11-20T19:08:13.592Z,44.95
2018-11-20T19:11:25.266Z,44.42
2018-11-20T19:14:50.307Z,46.58
2018-11-20T19:18:12.114Z,44.40
2018-11-20T19:21:44.393Z,43.48
2018-11-20T19:25:03.695Z,43.80
2018-11-20T19:28:20.310Z,41.88
2018-11-20T19:31:41.378Z,44.08
2018-11-20T19:34:52.491Z,43.42
2018-11-20T19:38:05.278Z,44.27
2018-11-20T19:41:13.452Z,42.93
2018-11-20T19:44:35.215Z,42.15
2018-11-20T19:47:46.746Z,42.85
2018-11-20T19:50:58.029Z,44.00
2018-11-20T19:54:09.515Z,40.95
